sensor_id;sensor_type;location;lat;lon;timestamp;pressure;altitude;pressure_sealevel;temperature;humidity
37860;BME280;23698;52.014;5.190;2023-03-04T00:00:12;102610.38;;;5.23;100.00
37860;BME280;23698;52.014;5.190;2023-03-04T00:02:59;102611.25;;;5.24;100.00
37860;BME280;23698;52.014;5.190;2023-03-04T00:05:45;102611.25;;;5.24;100.00
37860;BME280;23698;52.014;5.190;2023-03-04T00:08:32;102606.22;;;5.19;100.00
37860;BME280;23698;52.014;5.190;2023-03-04T00:11:18;102612.34;;;5.21;100.00
37860;BME280;23698;52.014;5.190;2023-03-04T00:14:06;102608.66;;;5.22;100.00
37860;BME280;23698;52.014;5.190;2023-03-04T00:16:52;102616.88;;;5.21;100.00
37860;BME280;23698;52.014;5.190;2023-03-04T00:19:38;102617.19;;;5.16;100.00
37860;BME280;23698;52.014;5.190;2023-03-04T00:22:25;102613.03;;;5.12;100.00
37860;BME280;23698;52.014;5.190;2023-03-04T00:25:11;102616.97;;;5.19;100.00
37860;BME280;23698;52.014;5.190;2023-03-04T00:27:58;102609.97;;;5.17;100.00
37860;BME280;23698;52.014;5.190;2023-03-04T00:30:46;102614.03;;;5.22;100.00
37860;BME280;23698;52.014;5.190;2023-03-04T00:33:33;102609.75;;;5.20;100.00
37860;BME280;23698;52.014;5.190;2023-03-04T00:36:19;102606.97;;;5.21;100.00
37860;BME280;23698;52.014;5.190;2023-03-04T00:39:06;102608.91;;;5.19;100.00
37860;BME280;23698;52.014;5.190;2023-03-04T00:41:53;102605.81;;;5.13;100.00
37860;BME280;23698;52.014;5.190;2023-03-04T00:44:39;102606.56;;;5.15;100.00
37860;BME280;23698;52.014;5.190;2023-03-04T00:47:27;102604.72;;;5.15;100.00
37860;BME280;23698;52.014;5.190;2023-03-04T00:50:14;102617.41;;;5.13;100.00
37860;BME280;23698;52.014;5.190;2023-03-04T00:53:00;102613.41;;;5.19;100.00
37860;BME280;23698;52.014;5.190;2023-03-04T00:55:46;102613.75;;;5.14;100.00
37860;BME280;23698;52.014;5.190;2023-03-04T00:58:33;102611.28;;;5.11;100.00
37860;BME280;23698;52.014;5.190;2023-03-04T01:01:19;102614.63;;;5.15;100.00
37860;BME280;23698;52.014;5.190;2023-03-04T01:04:07;102615.56;;;5.14;100.00
37860;BME280;23698;52.014;5.190;2023-03-04T01:06:54;102609.34;;;5.13;100.00
37860;BME280;23698;52.014;5.190;2023-03-04T01:09:40;102615.47;;;5.15;100.00
37860;BME280;23698;52.014;5.190;2023-03-04T01:12:27;102613.97;;;5.11;100.00
37860;BME280;23698;52.014;5.190;2023-03-04T01:15:14;102610.44;;;5.10;100.00
37860;BME280;23698;52.014;5.190;2023-03-04T01:18:00;102612.41;;;5.08;100.00
37860;BME280;23698;52.014;5.190;2023-03-04T01:20:48;102601.38;;;5.11;100.00
37860;BME280;23698;52.014;5.190;2023-03-04T01:23:35;102604.19;;;5.10;100.00
37860;BME280;23698;52.014;5.190;2023-03-04T01:26:22;102601.84;;;5.05;100.00
37860;BME280;23698;52.014;5.190;2023-03-04T01:29:08;102606.03;;;5.09;100.00
37860;BME280;23698;52.014;5.190;2023-03-04T01:31:54;102604.97;;;5.12;100.00
37860;BME280;23698;52.014;5.190;2023-03-04T01:34:41;102596.00;;;5.11;100.00
37860;BME280;23698;52.014;5.190;2023-03-04T01:37:28;102595.38;;;5.08;100.00
37860;BME280;23698;52.014;5.190;2023-03-04T01:40:15;102593.16;;;5.02;100.00
37860;BME280;23698;52.014;5.190;2023-03-04T01:43:02;102584.09;;;5.03;100.00
37860;BME280;23698;52.014;5.190;2023-03-04T01:45:50;102580.03;;;4.97;100.00
37860;BME280;23698;52.014;5.190;2023-03-04T01:48:37;102577.16;;;5.00;100.00
37860;BME280;23698;52.014;5.190;2023-03-04T01:51:24;102576.16;;;5.01;100.00
37860;BME280;23698;52.014;5.190;2023-03-04T01:54:12;102567.13;;;5.02;100.00
37860;BME280;23698;52.014;5.190;2023-03-04T01:56:59;102567.72;;;4.95;100.00
37860;BME280;23698;52.014;5.190;2023-03-04T01:59:46;102559.50;;;4.96;100.00
37860;BME280;23698;52.014;5.190;2023-03-04T02:02:32;102566.28;;;5.02;100.00
37860;BME280;23698;52.014;5.190;2023-03-04T02:05:19;102557.22;;;5.03;100.00
37860;BME280;23698;52.014;5.190;2023-03-04T02:08:08;102556.72;;;4.98;100.00
37860;BME280;23698;52.014;5.190;2023-03-04T02:10:56;102557.59;;;4.98;100.00
37860;BME280;23698;52.014;5.190;2023-03-04T02:13:43;102544.47;;;4.94;100.00
37860;BME280;23698;52.014;5.190;2023-03-04T02:16:30;102539.00;;;4.95;100.00
37860;BME280;23698;52.014;5.190;2023-03-04T02:19:28;102538.16;;;4.95;100.00
37860;BME280;23698;52.014;5.190;2023-03-04T02:22:18;102546.31;;;4.93;100.00
37860;BME280;23698;52.014;5.190;2023-03-04T02:25:07;102542.31;;;4.99;100.00
37860;BME280;23698;52.014;5.190;2023-03-04T02:27:57;102541.91;;;4.92;100.00
37860;BME280;23698;52.014;5.190;2023-03-04T02:30:43;102533.44;;;4.85;100.00
37860;BME280;23698;52.014;5.190;2023-03-04T02:33:30;102533.84;;;4.92;100.00
37860;BME280;23698;52.014;5.190;2023-03-04T02:36:17;102533.19;;;4.88;100.00
37860;BME280;23698;52.014;5.190;2023-03-04T02:39:07;102531.47;;;4.87;100.00
37860;BME280;23698;52.014;5.190;2023-03-04T02:41:56;102527.63;;;4.91;100.00
37860;BME280;23698;52.014;5.190;2023-03-04T02:44:46;102524.41;;;4.86;100.00
37860;BME280;23698;52.014;5.190;2023-03-04T02:47:36;102515.59;;;4.84;100.00
37860;BME280;23698;52.014;5.190;2023-03-04T02:50:23;102519.88;;;4.87;100.00
37860;BME280;23698;52.014;5.190;2023-03-04T02:53:11;102518.91;;;4.88;100.00
37860;BME280;23698;52.014;5.190;2023-03-04T02:55:57;102519.66;;;4.90;100.00
37860;BME280;23698;52.014;5.190;2023-03-04T02:58:48;102513.94;;;4.95;100.00
37860;BME280;23698;52.014;5.190;2023-03-04T03:01:37;102522.75;;;4.97;100.00
37860;BME280;23698;52.014;5.190;2023-03-04T03:04:24;102517.50;;;4.95;100.00
37860;BME280;23698;52.014;5.190;2023-03-04T03:07:12;102521.13;;;4.94;100.00
37860;BME280;23698;52.014;5.190;2023-03-04T03:09:59;102514.06;;;4.93;100.00
37860;BME280;23698;52.014;5.190;2023-03-04T03:12:47;102515.25;;;4.89;100.00
37860;BME280;23698;52.014;5.190;2023-03-04T03:15:33;102519.31;;;4.95;100.00
37860;BME280;23698;52.014;5.190;2023-03-04T03:18:20;102513.19;;;4.92;100.00
37860;BME280;23698;52.014;5.190;2023-03-04T03:21:07;102508.44;;;4.96;100.00
37860;BME280;23698;52.014;5.190;2023-03-04T03:23:54;102507.81;;;4.92;100.00
37860;BME280;23698;52.014;5.190;2023-03-04T03:26:40;102508.69;;;4.93;100.00
37860;BME280;23698;52.014;5.190;2023-03-04T03:29:26;102501.59;;;4.92;100.00
37860;BME280;23698;52.014;5.190;2023-03-04T03:32:13;102504.38;;;4.90;100.00
37860;BME280;23698;52.014;5.190;2023-03-04T03:35:01;102499.00;;;4.90;100.00
37860;BME280;23698;52.014;5.190;2023-03-04T03:37:47;102503.94;;;4.97;100.00
37860;BME280;23698;52.014;5.190;2023-03-04T03:40:34;102504.28;;;4.92;100.00
37860;BME280;23698;52.014;5.190;2023-03-04T03:43:20;102491.94;;;4.89;100.00
37860;BME280;23698;52.014;5.190;2023-03-04T03:46:07;102500.00;;;4.89;100.00
37860;BME280;23698;52.014;5.190;2023-03-04T03:48:53;102499.22;;;4.87;100.00
37860;BME280;23698;52.014;5.190;2023-03-04T03:51:41;102493.75;;;4.89;100.00
37860;BME280;23698;52.014;5.190;2023-03-04T03:54:28;102495.47;;;4.90;100.00
37860;BME280;23698;52.014;5.190;2023-03-04T03:57:14;102493.75;;;4.89;100.00
37860;BME280;23698;52.014;5.190;2023-03-04T04:00:02;102501.69;;;4.90;100.00
37860;BME280;23698;52.014;5.190;2023-03-04T04:02:57;102505.13;;;4.92;100.00
37860;BME280;23698;52.014;5.190;2023-03-04T04:05:45;102497.94;;;4.93;100.00
37860;BME280;23698;52.014;5.190;2023-03-04T04:08:32;102500.97;;;4.88;100.00
37860;BME280;23698;52.014;5.190;2023-03-04T04:11:19;102504.38;;;4.90;100.00
37860;BME280;23698;52.014;5.190;2023-03-04T04:14:07;102502.69;;;4.89;100.00
37860;BME280;23698;52.014;5.190;2023-03-04T04:16:54;102506.56;;;4.85;100.00
37860;BME280;23698;52.014;5.190;2023-03-04T04:19:40;102513.97;;;4.82;100.00
37860;BME280;23698;52.014;5.190;2023-03-04T04:22:27;102511.19;;;4.83;100.00
37860;BME280;23698;52.014;5.190;2023-03-04T04:25:15;102507.66;;;4.83;100.00
37860;BME280;23698;52.014;5.190;2023-03-04T04:28:01;102507.66;;;4.83;100.00
37860;BME280;23698;52.014;5.190;2023-03-04T04:30:47;102506.56;;;4.85;100.00
37860;BME280;23698;52.014;5.190;2023-03-04T04:33:34;102502.50;;;4.80;100.00
37860;BME280;23698;52.014;5.190;2023-03-04T04:36:20;102498.97;;;4.79;100.00
37860;BME280;23698;52.014;5.190;2023-03-04T04:39:07;102513.97;;;4.82;100.00
37860;BME280;23698;52.014;5.190;2023-03-04T04:41:55;102507.66;;;4.83;100.00
37860;BME280;23698;52.014;5.190;2023-03-04T04:44:41;102510.66;;;4.78;100.00
37860;BME280;23698;52.014;5.190;2023-03-04T04:47:27;102509.72;;;4.79;100.00
37860;BME280;23698;52.014;5.190;2023-03-04T04:50:14;102510.38;;;4.70;100.00
37860;BME280;23698;52.014;5.190;2023-03-04T04:53:00;102507.34;;;4.75;100.00
37860;BME280;23698;52.014;5.190;2023-03-04T04:55:47;102497.69;;;4.72;100.00
37860;BME280;23698;52.014;5.190;2023-03-04T04:58:34;102498.66;;;4.71;100.00
37860;BME280;23698;52.014;5.190;2023-03-04T05:01:21;102509.28;;;4.72;100.00
37860;BME280;23698;52.014;5.190;2023-03-04T05:04:07;102500.50;;;4.70;100.00
37860;BME280;23698;52.014;5.190;2023-03-04T05:06:54;102503.94;;;4.72;100.00
37860;BME280;23698;52.014;5.190;2023-03-04T05:09:41;102499.41;;;4.73;100.00
37860;BME280;23698;52.014;5.190;2023-03-04T05:12:27;102500.59;;;4.69;100.00
37860;BME280;23698;52.014;5.190;2023-03-04T05:15:15;102500.72;;;4.67;100.00
37860;BME280;23698;52.014;5.190;2023-03-04T05:18:02;102501.56;;;4.68;100.00
37860;BME280;23698;52.014;5.190;2023-03-04T05:20:49;102496.72;;;4.73;100.00
37860;BME280;23698;52.014;5.190;2023-03-04T05:23:39;102501.34;;;4.71;100.00
37860;BME280;23698;52.014;5.190;2023-03-04T05:26:25;102502.97;;;4.73;100.00
37860;BME280;23698;52.014;5.190;2023-03-04T05:29:12;102496.50;;;4.76;100.00
37860;BME280;23698;52.014;5.190;2023-03-04T05:32:00;102500.38;;;4.72;100.00
37860;BME280;23698;52.014;5.190;2023-03-04T05:34:46;102499.28;;;4.75;100.00
37860;BME280;23698;52.014;5.190;2023-03-04T05:37:33;102501.22;;;4.72;100.00
37860;BME280;23698;52.014;5.190;2023-03-04T05:40:19;102500.28;;;4.73;100.00
37860;BME280;23698;52.014;5.190;2023-03-04T05:43:06;102501.13;;;4.74;100.00
37860;BME280;23698;52.014;5.190;2023-03-04T05:45:53;102499.28;;;4.75;100.00
37860;BME280;23698;52.014;5.190;2023-03-04T05:48:40;102496.28;;;4.79;100.00
37860;BME280;23698;52.014;5.190;2023-03-04T05:51:27;102492.31;;;4.72;100.00
37860;BME280;23698;52.014;5.190;2023-03-04T05:54:14;102495.88;;;4.72;100.00
37860;BME280;23698;52.014;5.190;2023-03-04T05:57:00;102503.28;;;4.69;100.00
37860;BME280;23698;52.014;5.190;2023-03-04T05:59:46;102489.78;;;4.58;100.00
37860;BME280;23698;52.014;5.190;2023-03-04T06:02:33;102497.97;;;4.56;100.00
37860;BME280;23698;52.014;5.190;2023-03-04T06:05:21;102494.28;;;4.57;100.00
37860;BME280;23698;52.014;5.190;2023-03-04T06:08:07;102492.47;;;4.58;100.00
37860;BME280;23698;52.014;5.190;2023-03-04T06:10:55;102494.00;;;4.49;100.00
37860;BME280;23698;52.014;5.190;2023-03-04T06:13:41;102492.91;;;4.51;100.00
37860;BME280;23698;52.014;5.190;2023-03-04T06:16:28;102485.16;;;4.60;100.00
37860;BME280;23698;52.014;5.190;2023-03-04T06:19:14;102488.06;;;4.57;100.00
37860;BME280;23698;52.014;5.190;2023-03-04T06:22:02;102484.28;;;4.59;100.00
37860;BME280;23698;52.014;5.190;2023-03-04T06:24:49;102494.06;;;4.60;100.00
37860;BME280;23698;52.014;5.190;2023-03-04T06:27:35;102492.97;;;4.63;100.00
37860;BME280;23698;52.014;5.190;2023-03-04T06:30:22;102487.84;;;4.60;100.00
37860;BME280;23698;52.014;5.190;2023-03-04T06:33:09;102487.22;;;4.56;100.00
37860;BME280;23698;52.014;5.190;2023-03-04T06:35:56;102489.34;;;4.64;100.00
37860;BME280;23698;52.014;5.190;2023-03-04T06:38:44;102488.38;;;4.65;100.00
37860;BME280;23698;52.014;5.190;2023-03-04T06:41:31;102484.91;;;4.63;100.00
37860;BME280;23698;52.014;5.190;2023-03-04T06:44:18;102493.63;;;4.66;100.00
37860;BME280;23698;52.014;5.190;2023-03-04T06:47:04;102483.75;;;4.67;100.00
37860;BME280;23698;52.014;5.190;2023-03-04T06:49:51;102489.13;;;4.67;100.00
37860;BME280;23698;52.014;5.190;2023-03-04T06:52:37;102485.44;;;4.68;100.00
37860;BME280;23698;52.014;5.190;2023-03-04T06:55:25;102481.59;;;4.72;100.00
37860;BME280;23698;52.014;5.190;2023-03-04T06:58:12;102483.78;;;4.78;100.00
37860;BME280;23698;52.014;5.190;2023-03-04T07:01:09;102481.19;;;4.89;100.00
37860;BME280;23698;52.014;5.190;2023-03-04T07:03:59;102491.69;;;4.92;100.00
37860;BME280;23698;52.014;5.190;2023-03-04T07:06:47;102484.25;;;4.96;100.00
37860;BME280;23698;52.014;5.190;2023-03-04T07:09:33;102491.53;;;5.07;100.00
37860;BME280;23698;52.014;5.190;2023-03-04T07:12:23;102490.84;;;4.92;100.00
37860;BME280;23698;52.014;5.190;2023-03-04T07:15:10;102494.63;;;4.89;100.00
37860;BME280;23698;52.014;5.190;2023-03-04T07:17:57;102494.03;;;4.97;100.00
37860;BME280;23698;52.014;5.190;2023-03-04T07:20:43;102494.66;;;5.01;100.00
37860;BME280;23698;52.014;5.190;2023-03-04T07:23:30;102491.56;;;4.94;100.00
37860;BME280;23698;52.014;5.190;2023-03-04T07:26:17;102494.16;;;4.96;100.00
37860;BME280;23698;52.014;5.190;2023-03-04T07:29:05;102495.13;;;4.95;100.00
37860;BME280;23698;52.014;5.190;2023-03-04T07:31:51;102496.31;;;4.90;100.00
37860;BME280;23698;52.014;5.190;2023-03-04T07:34:38;102497.81;;;4.95;100.00
37860;BME280;23698;52.014;5.190;2023-03-04T07:37:24;102496.13;;;5.05;100.00
37860;BME280;23698;52.014;5.190;2023-03-04T07:40:11;102497.97;;;5.04;100.00
37860;BME280;23698;52.014;5.190;2023-03-04T07:42:57;102494.56;;;5.02;100.00
37860;BME280;23698;52.014;5.190;2023-03-04T07:45:46;102497.78;;;5.19;100.00
37860;BME280;23698;52.014;5.190;2023-03-04T07:48:33;102504.25;;;5.40;100.00
37860;BME280;23698;52.014;5.190;2023-03-04T07:51:21;102502.19;;;5.44;100.00
37860;BME280;23698;52.014;5.190;2023-03-04T07:54:08;102511.00;;;5.57;100.00
37860;BME280;23698;52.014;5.190;2023-03-04T07:56:55;102498.81;;;5.64;100.00
37860;BME280;23698;52.014;5.190;2023-03-04T07:59:42;102498.81;;;5.76;100.00
37860;BME280;23698;52.014;5.190;2023-03-04T08:02:29;102507.06;;;5.85;100.00
37860;BME280;23698;52.014;5.190;2023-03-04T08:05:16;102505.63;;;6.04;100.00
37860;BME280;23698;52.014;5.190;2023-03-04T08:08:02;102506.72;;;6.01;100.00
37860;BME280;23698;52.014;5.190;2023-03-04T08:10:48;102515.78;;;6.12;100.00
37860;BME280;23698;52.014;5.190;2023-03-04T08:13:35;102512.75;;;6.28;100.00
37860;BME280;23698;52.014;5.190;2023-03-04T08:16:23;102522.63;;;6.27;100.00
37860;BME280;23698;52.014;5.190;2023-03-04T08:19:11;102518.50;;;6.34;100.00
37860;BME280;23698;52.014;5.190;2023-03-04T08:21:57;102523.59;;;6.60;100.00
37860;BME280;23698;52.014;5.190;2023-03-04T08:24:44;102526.28;;;6.71;100.00
37860;BME280;23698;52.014;5.190;2023-03-04T08:27:30;102526.53;;;6.57;100.00
37860;BME280;23698;52.014;5.190;2023-03-04T08:30:17;102530.81;;;6.48;100.00
37860;BME280;23698;52.014;5.190;2023-03-04T08:33:03;102530.59;;;6.63;100.00
37860;BME280;23698;52.014;5.190;2023-03-04T08:35:51;102537.44;;;6.67;100.00
37860;BME280;23698;52.014;5.190;2023-03-04T08:38:40;102524.44;;;6.72;100.00
37860;BME280;23698;52.014;5.190;2023-03-04T08:41:27;102531.03;;;6.79;100.00
37860;BME280;23698;52.014;5.190;2023-03-04T08:44:13;102528.97;;;6.71;100.00
37860;BME280;23698;52.014;5.190;2023-03-04T08:47:00;102534.06;;;6.97;100.00
37860;BME280;23698;52.014;5.190;2023-03-04T08:49:46;102530.31;;;7.21;100.00
37860;BME280;23698;52.014;5.190;2023-03-04T08:52:33;102527.16;;;7.15;100.00
37860;BME280;23698;52.014;5.190;2023-03-04T08:55:20;102537.59;;;7.09;100.00
37860;BME280;23698;52.014;5.190;2023-03-04T08:58:07;102534.88;;;7.20;100.00
37860;BME280;23698;52.014;5.190;2023-03-04T09:00:54;102535.97;;;7.50;100.00
37860;BME280;23698;52.014;5.190;2023-03-04T09:03:41;102526.09;;;7.60;100.00
37860;BME280;23698;52.014;5.190;2023-03-04T09:06:27;102521.88;;;7.88;100.00
37860;BME280;23698;52.014;5.190;2023-03-04T09:09:15;102515.47;;;7.89;100.00
37860;BME280;23698;52.014;5.190;2023-03-04T09:12:01;102517.66;;;7.74;100.00
37860;BME280;23698;52.014;5.190;2023-03-04T09:14:48;102519.09;;;7.57;100.00
37860;BME280;23698;52.014;5.190;2023-03-04T09:17:52;102517.00;;;7.61;100.00
37860;BME280;23698;52.014;5.190;2023-03-04T09:20:39;102512.41;;;7.73;100.00
37860;BME280;23698;52.014;5.190;2023-03-04T09:23:25;102513.81;;;7.77;100.00
37860;BME280;23698;52.014;5.190;2023-03-04T09:26:15;102518.81;;;8.03;100.00
37860;BME280;23698;52.014;5.190;2023-03-04T09:29:03;102520.34;;;7.96;100.00
37860;BME280;23698;52.014;5.190;2023-03-04T09:31:51;102517.91;;;7.50;100.00
37860;BME280;23698;52.014;5.190;2023-03-04T09:34:37;102522.59;;;7.48;100.00
37860;BME280;23698;52.014;5.190;2023-03-04T09:37:23;102524.28;;;7.49;100.00
37860;BME280;23698;52.014;5.190;2023-03-04T09:40:15;102518.38;;;7.55;100.00
37860;BME280;23698;52.014;5.190;2023-03-04T09:43:10;102511.84;;;7.79;100.00
37860;BME280;23698;52.014;5.190;2023-03-04T09:45:59;102513.22;;;7.94;100.00
37860;BME280;23698;52.014;5.190;2023-03-04T09:48:49;102507.16;;;8.02;100.00
37860;BME280;23698;52.014;5.190;2023-03-04T09:51:50;102508.69;;;7.95;100.00
37860;BME280;23698;52.014;5.190;2023-03-04T09:54:54;102509.69;;;7.73;100.00
37860;BME280;23698;52.014;5.190;2023-03-04T09:57:47;102511.59;;;7.61;100.00
37860;BME280;23698;52.014;5.190;2023-03-04T10:00:39;102513.25;;;7.52;100.00
37860;BME280;23698;52.014;5.190;2023-03-04T10:03:33;102503.56;;;7.50;100.00
37860;BME280;23698;52.014;5.190;2023-03-04T10:06:27;102504.47;;;8.02;100.00
37860;BME280;23698;52.014;5.190;2023-03-04T10:09:20;102509.59;;;8.36;100.00
37860;BME280;23698;52.014;5.190;2023-03-04T10:12:11;102496.84;;;8.17;100.00
37860;BME280;23698;52.014;5.190;2023-03-04T10:15:02;102502.03;;;8.30;100.00
37860;BME280;23698;52.014;5.190;2023-03-04T10:17:54;102501.03;;;8.00;100.00
37860;BME280;23698;52.014;5.190;2023-03-04T10:20:50;102509.09;;;7.48;100.00
37860;BME280;23698;52.014;5.190;2023-03-04T10:23:38;102504.34;;;7.41;100.00
37860;BME280;23698;52.014;5.190;2023-03-04T10:26:29;102497.38;;;7.38;100.00
37860;BME280;23698;52.014;5.190;2023-03-04T10:29:19;102507.22;;;7.60;100.00
37860;BME280;23698;52.014;5.190;2023-03-04T10:32:08;102500.16;;;7.69;100.00
37860;BME280;23698;52.014;5.190;2023-03-04T10:34:59;102496.59;;;7.68;100.00
37860;BME280;23698;52.014;5.190;2023-03-04T10:37:48;102489.44;;;8.19;100.00
37860;BME280;23698;52.014;5.190;2023-03-04T10:40:37;102495.03;;;8.68;100.00
37860;BME280;23698;52.014;5.190;2023-03-04T10:43:24;102478.75;;;9.28;100.00
37860;BME280;23698;52.014;5.190;2023-03-04T10:46:11;102487.84;;;8.98;100.00
37860;BME280;23698;52.014;5.190;2023-03-04T10:48:58;102488.56;;;8.90;100.00
37860;BME280;23698;52.014;5.190;2023-03-04T10:51:47;102482.81;;;8.64;100.00
37860;BME280;23698;52.014;5.190;2023-03-04T10:54:41;102478.00;;;8.37;100.00
37860;BME280;23698;52.014;5.190;2023-03-04T10:57:33;102483.66;;;8.55;100.00
37860;BME280;23698;52.014;5.190;2023-03-04T11:00:28;102477.28;;;8.75;100.00
37860;BME280;23698;52.014;5.190;2023-03-04T11:03:23;102476.31;;;8.96;100.00
37860;BME280;23698;52.014;5.190;2023-03-04T11:06:18;102473.72;;;8.75;100.00
37860;BME280;23698;52.014;5.190;2023-03-04T11:09:20;102482.34;;;8.18;100.00
37860;BME280;23698;52.014;5.190;2023-03-04T11:12:10;102479.59;;;7.56;100.00
37860;BME280;23698;52.014;5.190;2023-03-04T11:14:57;102486.38;;;7.30;100.00
37860;BME280;23698;52.014;5.190;2023-03-04T11:17:47;102490.63;;;7.11;100.00
37860;BME280;23698;52.014;5.190;2023-03-04T11:20:36;102484.00;;;7.15;100.00
37860;BME280;23698;52.014;5.190;2023-03-04T11:23:31;102471.88;;;7.10;100.00
37860;BME280;23698;52.014;5.190;2023-03-04T11:26:25;102479.00;;;7.32;100.00
37860;BME280;23698;52.014;5.190;2023-03-04T11:29:16;102474.38;;;7.86;100.00
37860;BME280;23698;52.014;5.190;2023-03-04T11:32:08;102467.41;;;8.14;100.00
37860;BME280;23698;52.014;5.190;2023-03-04T11:35:00;102452.59;;;8.49;100.00
37860;BME280;23698;52.014;5.190;2023-03-04T11:37:58;102441.13;;;8.16;100.00
37860;BME280;23698;52.014;5.190;2023-03-04T11:40:51;102434.00;;;8.15;100.00
37860;BME280;23698;52.014;5.190;2023-03-04T11:43:42;102430.09;;;7.98;100.00
37860;BME280;23698;52.014;5.190;2023-03-04T11:46:47;102443.00;;;7.64;100.00
37860;BME280;23698;52.014;5.190;2023-03-04T11:49:54;102438.06;;;7.48;100.00
37860;BME280;23698;52.014;5.190;2023-03-04T11:59:45;102459.31;;;6.44;100.00
37860;BME280;23698;52.014;5.190;2023-03-04T12:02:41;102448.09;;;6.28;100.00
37860;BME280;23698;52.014;5.190;2023-03-04T12:05:41;102447.09;;;6.29;100.00
37860;BME280;23698;52.014;5.190;2023-03-04T12:11:50;102425.66;;;6.82;100.00
37860;BME280;23698;52.014;5.190;2023-03-04T12:14:46;102417.13;;;6.98;100.00
37860;BME280;23698;52.014;5.190;2023-03-04T12:18:04;102410.13;;;7.28;100.00
37860;BME280;23698;52.014;5.190;2023-03-04T12:21:07;102394.88;;;7.69;100.00
37860;BME280;23698;52.014;5.190;2023-03-04T12:24:17;102392.53;;;7.85;100.00
37860;BME280;23698;52.014;5.190;2023-03-04T12:27:16;102386.75;;;8.00;100.00
37860;BME280;23698;52.014;5.190;2023-03-04T12:30:17;102382.28;;;8.20;100.00
37860;BME280;23698;52.014;5.190;2023-03-04T12:33:11;102386.91;;;8.08;100.00
37860;BME280;23698;52.014;5.190;2023-03-04T12:36:11;102386.16;;;7.86;100.00
37860;BME280;23698;52.014;5.190;2023-03-04T12:39:16;102384.16;;;7.57;100.00
37860;BME280;23698;52.014;5.190;2023-03-04T12:42:13;102391.13;;;6.76;100.00
37860;BME280;23698;52.014;5.190;2023-03-04T12:45:16;102405.31;;;6.46;100.00
37860;BME280;23698;52.014;5.190;2023-03-04T12:48:11;102407.03;;;6.47;100.00
37860;BME280;23698;52.014;5.190;2023-03-04T12:51:20;102407.97;;;6.57;100.00
37860;BME280;23698;52.014;5.190;2023-03-04T12:54:19;102401.66;;;6.47;100.00
37860;BME280;23698;52.014;5.190;2023-03-04T12:57:12;102395.44;;;6.67;100.00
37860;BME280;23698;52.014;5.190;2023-03-04T13:00:08;102395.28;;;6.80;100.00
37860;BME280;23698;52.014;5.190;2023-03-04T13:03:07;102379.19;;;6.90;100.00
37860;BME280;23698;52.014;5.190;2023-03-04T13:06:04;102370.38;;;7.09;100.00
37860;BME280;23698;52.014;5.190;2023-03-04T13:08:58;102362.81;;;7.24;100.00
37860;BME280;23698;52.014;5.190;2023-03-04T13:11:52;102354.28;;;7.18;100.00
37860;BME280;23698;52.014;5.190;2023-03-04T13:15:24;102347.41;;;7.14;100.00
37860;BME280;23698;52.014;5.190;2023-03-04T13:18:30;102346.69;;;7.33;100.00
37860;BME280;23698;52.014;5.190;2023-03-04T13:21:22;102340.38;;;7.23;100.00
37860;BME280;23698;52.014;5.190;2023-03-04T13:24:43;102337.63;;;7.13;100.00
37860;BME280;23698;52.014;5.190;2023-03-04T13:27:46;102347.84;;;7.41;100.00
37860;BME280;23698;52.014;5.190;2023-03-04T13:30:41;102320.59;;;7.74;100.00
37860;BME280;23698;52.014;5.190;2023-03-04T13:34:00;102328.56;;;7.86;100.00
37860;BME280;23698;52.014;5.190;2023-03-04T13:36:56;102331.19;;;7.97;100.00
37860;BME280;23698;52.014;5.190;2023-03-04T13:39:43;102334.78;;;7.36;100.00
37860;BME280;23698;52.014;5.190;2023-03-04T13:42:40;102340.34;;;6.92;100.00
37860;BME280;23698;52.014;5.190;2023-03-04T13:45:30;102342.16;;;6.92;100.00
37860;BME280;23698;52.014;5.190;2023-03-04T13:48:27;102334.81;;;6.94;100.00
37860;BME280;23698;52.014;5.190;2023-03-04T13:51:17;102337.19;;;6.87;100.00
37860;BME280;23698;52.014;5.190;2023-03-04T13:54:15;102333.88;;;6.84;100.00
37860;BME280;23698;52.014;5.190;2023-03-04T13:57:20;102336.72;;;7.03;100.00
37860;BME280;23698;52.014;5.190;2023-03-04T14:00:11;102334.06;;;7.13;100.00
37860;BME280;23698;52.014;5.190;2023-03-04T14:03:12;102333.44;;;7.30;100.00
37860;BME280;23698;52.014;5.190;2023-03-04T14:06:09;102338.47;;;7.14;100.00
37860;BME280;23698;52.014;5.190;2023-03-04T14:08:57;102333.44;;;7.30;100.00
37860;BME280;23698;52.014;5.190;2023-03-04T14:11:43;102322.66;;;7.30;100.00
37860;BME280;23698;52.014;5.190;2023-03-04T14:14:33;102333.59;;;7.29;100.00
37860;BME280;23698;52.014;5.190;2023-03-04T14:17:24;102330.00;;;7.18;100.00
37860;BME280;23698;52.014;5.190;2023-03-04T14:20:22;102343.22;;;7.00;100.00
37860;BME280;23698;52.014;5.190;2023-03-04T14:23:25;102340.84;;;7.07;100.00
37860;BME280;23698;52.014;5.190;2023-03-04T14:26:13;102332.03;;;7.05;100.00
37860;BME280;23698;52.014;5.190;2023-03-04T14:29:00;102330.59;;;7.01;100.00
37860;BME280;23698;52.014;5.190;2023-03-04T14:31:47;102341.84;;;7.06;100.00
37860;BME280;23698;52.014;5.190;2023-03-04T14:34:35;102340.38;;;6.81;100.00
37860;BME280;23698;52.014;5.190;2023-03-04T14:37:25;102334.94;;;6.71;100.00
37860;BME280;23698;52.014;5.190;2023-03-04T14:40:19;102329.78;;;6.68;100.00
37860;BME280;23698;52.014;5.190;2023-03-04T14:43:10;102331.22;;;6.72;100.00
37860;BME280;23698;52.014;5.190;2023-03-04T14:46:00;102327.69;;;6.93;100.00
37860;BME280;23698;52.014;5.190;2023-03-04T14:48:49;102323.09;;;7.05;100.00
37860;BME280;23698;52.014;5.190;2023-03-04T14:51:42;102320.47;;;6.93;100.00
37860;BME280;23698;52.014;5.190;2023-03-04T14:54:33;102316.78;;;6.94;100.00
37860;BME280;23698;52.014;5.190;2023-03-04T14:57:23;102307.78;;;7.05;100.00